Time;durP1;ratioP1;P1;durP2;ratioP2;P2;SDS_P1;SDS_P2;PMS_P1;PMS_P2;Temp;Humidity;BMP_temperature;BMP_pressure;BME280_temperature;BME280_humidity;BME280_pressure;Samples;Min_cycle;Max_cycle;Signal;HPM_P1;HPM_P2
2021/07/29 00:01:13;;;;;;;10.93;4.20;;;;;;;;;;5004761;28;20671;-84
2021/07/29 00:03:38;;;;;;;14.40;4.20;;;;;;;;;;5008148;28;20199;-84
2021/07/29 00:06:03;;;;;;;15.37;4.67;;;;;;;;;;5014154;28;20182;-83
2021/07/29 00:08:29;;;;;;;10.82;4.20;;;;;;;;;;5013816;28;20179;-85
2021/07/29 00:10:54;;;;;;;9.77;4.17;;;;;;;;;;5010243;28;20195;-83
2021/07/29 00:13:20;;;;;;;15.97;4.57;;;;;;;;;;5012252;28;20207;-83
2021/07/29 00:15:45;;;;;;;10.23;4.23;;;;;;;;;;5011932;28;20815;-85
2021/07/29 00:20:39;;;;;;;27.97;5.43;;;;;;;;;;5010516;28;20705;-84
2021/07/29 00:23:05;;;;;;;20.27;4.67;;;;;;;;;;5010527;28;20209;-84
2021/07/29 00:25:30;;;;;;;19.87;4.90;;;;;;;;;;5010444;28;20562;-83
2021/07/29 00:27:56;;;;;;;25.43;4.53;;;;;;;;;;5013034;28;20183;-82
2021/07/29 00:30:23;;;;;;;23.43;4.23;;;;;;;;;;5012036;28;20199;-82
2021/07/29 00:32:50;;;;;;;26.73;5.20;;;;;;;;;;5011145;28;20241;-84
2021/07/29 00:35:16;;;;;;;27.93;4.70;;;;;;;;;;5011958;28;20195;-80
2021/07/29 00:37:41;;;;;;;27.77;5.97;;;;;;;;;;5010400;28;20182;-83
2021/07/29 00:40:07;;;;;;;23.57;4.60;;;;;;;;;;5008073;28;20186;-83
2021/07/29 00:42:32;;;;;;;12.77;3.90;;;;;;;;;;5013951;28;20694;-82
2021/07/29 00:44:58;;;;;;;12.13;3.45;;;;;;;;;;5007821;28;20187;-83
2021/07/29 00:47:23;;;;;;;9.63;3.13;;;;;;;;;;5007901;28;20184;-83
2021/07/29 00:49:49;;;;;;;8.13;2.83;;;;;;;;;;5010649;28;20180;-84
2021/07/29 00:52:14;;;;;;;5.55;2.88;;;;;;;;;;5028509;28;20179;-82
2021/07/29 00:54:40;;;;;;;14.00;3.40;;;;;;;;;;5010539;28;20577;-85
2021/07/29 00:57:07;;;;;;;16.23;3.33;;;;;;;;;;5011023;28;20187;-84
2021/07/29 00:59:32;;;;;;;14.68;3.45;;;;;;;;;;5009636;28;20183;-82
2021/07/29 01:01:58;;;;;;;12.43;3.22;;;;;;;;;;5010825;28;20261;-80
2021/07/29 01:04:23;;;;;;;7.40;2.88;;;;;;;;;;5013103;28;20302;-84
2021/07/29 01:06:48;;;;;;;12.60;3.08;;;;;;;;;;5009858;28;20195;-81
2021/07/29 01:09:13;;;;;;;3.80;2.30;;;;;;;;;;5010418;28;20242;-82
2021/07/29 01:11:40;;;;;;;7.40;3.03;;;;;;;;;;5010096;28;20528;-81
2021/07/29 01:14:06;;;;;;;5.10;2.60;;;;;;;;;;5011463;28;20642;-82
2021/07/29 01:16:31;;;;;;;11.73;3.33;;;;;;;;;;5008343;28;20219;-83
2021/07/29 01:18:57;;;;;;;16.20;3.35;;;;;;;;;;5008845;28;20184;-83
2021/07/29 01:21:24;;;;;;;22.25;3.83;;;;;;;;;;5008909;28;20406;-82
2021/07/29 01:23:50;;;;;;;17.67;3.53;;;;;;;;;;5007946;28;20219;-81
2021/07/29 01:26:15;;;;;;;23.92;4.53;;;;;;;;;;5027238;28;20171;-81
2021/07/29 01:28:40;;;;;;;22.60;3.72;;;;;;;;;;5008563;28;20225;-85
2021/07/29 01:31:05;;;;;;;31.70;4.33;;;;;;;;;;5008099;28;20266;-82
2021/07/29 01:33:31;;;;;;;20.93;3.67;;;;;;;;;;5008145;28;20581;-80
2021/07/29 01:35:56;;;;;;;17.93;3.60;;;;;;;;;;5012504;28;20709;-83
2021/07/29 01:38:21;;;;;;;22.53;3.80;;;;;;;;;;5010996;28;20230;-82
2021/07/29 01:40:46;;;;;;;29.70;4.13;;;;;;;;;;4997236;28;20200;-83
2021/07/29 01:43:11;;;;;;;21.27;4.07;;;;;;;;;;5003169;28;20211;-82
2021/07/29 01:45:37;;;;;;;20.53;4.10;;;;;;;;;;5008922;28;20723;-81
2021/07/29 01:48:02;;;;;;;22.43;4.17;;;;;;;;;;5011203;28;20241;-83
2021/07/29 01:50:27;;;;;;;32.90;4.73;;;;;;;;;;5007882;28;20582;-82
2021/07/29 01:52:52;;;;;;;43.80;5.93;;;;;;;;;;5009480;28;20222;-83
2021/07/29 01:55:17;;;;;;;28.57;4.13;;;;;;;;;;5009300;28;20218;-82
2021/07/29 01:57:44;;;;;;;24.27;4.40;;;;;;;;;;5008408;28;20190;-83
2021/07/29 02:00:09;;;;;;;20.17;3.80;;;;;;;;;;5009935;28;20194;-85
2021/07/29 02:02:35;;;;;;;29.93;5.13;;;;;;;;;;5009171;28;20183;-83
2021/07/29 02:05:00;;;;;;;18.60;4.93;;;;;;;;;;5009456;28;20713;-84
2021/07/29 02:07:25;;;;;;;28.03;4.87;;;;;;;;;;5008384;28;20186;-82
2021/07/29 02:09:50;;;;;;;22.23;4.77;;;;;;;;;;5009120;28;20740;-81
2021/07/29 02:12:15;;;;;;;19.20;4.50;;;;;;;;;;5009560;28;20175;-81
2021/07/29 02:14:41;;;;;;;23.70;5.03;;;;;;;;;;5008711;28;20671;-81
2021/07/29 02:17:06;;;;;;;21.07;4.43;;;;;;;;;;5007381;28;20203;-82
2021/07/29 02:19:32;;;;;;;15.27;4.67;;;;;;;;;;5010254;28;20213;-86
2021/07/29 02:21:58;;;;;;;21.37;3.97;;;;;;;;;;5035095;28;20207;-84
2021/07/29 02:24:23;;;;;;;21.80;4.20;;;;;;;;;;5015062;28;20207;-84
2021/07/29 02:26:48;;;;;;;18.10;3.83;;;;;;;;;;5009671;28;20184;-83
2021/07/29 02:29:13;;;;;;;15.80;4.00;;;;;;;;;;5008300;28;20188;-83
2021/07/29 02:31:38;;;;;;;21.77;3.57;;;;;;;;;;5011252;28;20183;-83
2021/07/29 02:34:04;;;;;;;10.30;3.07;;;;;;;;;;5008684;28;20573;-83
2021/07/29 02:36:29;;;;;;;14.53;3.87;;;;;;;;;;5009053;28;20195;-82
2021/07/29 02:38:54;;;;;;;16.23;3.30;;;;;;;;;;5008417;28;20179;-82
2021/07/29 02:41:20;;;;;;;17.77;3.50;;;;;;;;;;5008716;28;20263;-80
2021/07/29 02:43:45;;;;;;;7.53;3.07;;;;;;;;;;5010186;28;20198;-81
2021/07/29 02:46:10;;;;;;;15.40;4.53;;;;;;;;;;5007158;28;20191;-81
2021/07/29 02:48:35;;;;;;;12.20;3.80;;;;;;;;;;5006709;28;20184;-83
2021/07/29 02:51:01;;;;;;;13.40;4.30;;;;;;;;;;5007384;28;20199;-82
2021/07/29 02:53:32;;;;;;;11.50;4.03;;;;;;;;;;5011031;28;20212;-81
2021/07/29 02:55:58;;;;;;;17.60;3.73;;;;;;;;;;5007514;28;20660;-83
2021/07/29 02:58:23;;;;;;;7.53;3.20;;;;;;;;;;5026585;28;20199;-83
2021/07/29 03:00:48;;;;;;;10.60;3.13;;;;;;;;;;5008573;28;20203;-83
2021/07/29 03:03:13;;;;;;;14.90;3.63;;;;;;;;;;5015029;28;20777;-81
2021/07/29 03:05:38;;;;;;;11.93;3.30;;;;;;;;;;5004975;28;20578;-79
2021/07/29 03:08:04;;;;;;;8.83;3.20;;;;;;;;;;5006211;28;20175;-82
2021/07/29 03:10:29;;;;;;;13.07;3.87;;;;;;;;;;5007617;28;20274;-84
2021/07/29 03:12:54;;;;;;;7.93;3.00;;;;;;;;;;5008953;28;20215;-82
2021/07/29 03:15:19;;;;;;;6.70;3.00;;;;;;;;;;5009394;28;20565;-80
2021/07/29 03:17:45;;;;;;;6.73;2.80;;;;;;;;;;5007879;28;20187;-80
2021/07/29 03:20:10;;;;;;;4.93;2.73;;;;;;;;;;5006875;28;20619;-81
2021/07/29 03:22:35;;;;;;;3.57;2.50;;;;;;;;;;5012662;28;20186;-84
2021/07/29 03:25:00;;;;;;;3.47;3.03;;;;;;;;;;5008757;28;20202;-84
2021/07/29 03:27:25;;;;;;;4.63;2.60;;;;;;;;;;5009463;28;20179;-84
2021/07/29 03:29:51;;;;;;;3.70;2.37;;;;;;;;;;5008103;28;20171;-84
2021/07/29 03:32:16;;;;;;;6.20;2.53;;;;;;;;;;5006706;28;20788;-84
2021/07/29 03:34:41;;;;;;;3.22;2.40;;;;;;;;;;5007272;28;20888;-83
2021/07/29 03:37:06;;;;;;;2.77;2.30;;;;;;;;;;5008262;28;20186;-82
2021/07/29 03:39:31;;;;;;;3.25;2.78;;;;;;;;;;5009311;28;20651;-82
2021/07/29 03:41:57;;;;;;;7.87;3.07;;;;;;;;;;5007803;28;20816;-82
2021/07/29 03:44:22;;;;;;;5.00;2.70;;;;;;;;;;5024827;28;20207;-85
2021/07/29 03:46:47;;;;;;;6.83;2.90;;;;;;;;;;5008523;28;20187;-85
2021/07/29 03:49:12;;;;;;;4.33;2.70;;;;;;;;;;5008036;28;20179;-84
2021/07/29 03:51:37;;;;;;;4.83;3.17;;;;;;;;;;5007517;28;20233;-83
2021/07/29 03:54:02;;;;;;;4.13;3.20;;;;;;;;;;5006918;28;20241;-82
2021/07/29 03:56:28;;;;;;;6.93;2.85;;;;;;;;;;5006742;28;20352;-85
2021/07/29 03:58:53;;;;;;;6.13;2.70;;;;;;;;;;5007710;28;20192;-82
2021/07/29 04:01:18;;;;;;;6.38;3.10;;;;;;;;;;5008687;28;20207;-83
2021/07/29 04:03:45;;;;;;;6.25;2.60;;;;;;;;;;5005101;28;20257;-82
2021/07/29 04:06:15;;;;;;;8.43;3.40;;;;;;;;;;5007309;28;20184;-82
2021/07/29 04:08:40;;;;;;;4.80;2.70;;;;;;;;;;5008197;28;20175;-84
2021/07/29 04:11:05;;;;;;;8.73;3.03;;;;;;;;;;5007263;28;20187;-83
2021/07/29 04:13:31;;;;;;;4.73;2.57;;;;;;;;;;4997505;28;20204;-81
2021/07/29 04:16:02;;;;;;;4.07;2.60;;;;;;;;;;5008117;28;20211;-84
2021/07/29 04:18:28;;;;;;;9.07;3.03;;;;;;;;;;5006606;28;20225;-83
2021/07/29 04:20:54;;;;;;;3.53;2.47;;;;;;;;;;5005443;28;20238;-83
2021/07/29 04:23:19;;;;;;;3.45;2.58;;;;;;;;;;5009088;28;20222;-83
2021/07/29 04:25:44;;;;;;;5.43;2.70;;;;;;;;;;5005709;28;20341;-83
2021/07/29 04:28:09;;;;;;;4.25;3.05;;;;;;;;;;5005325;28;20178;-81
2021/07/29 04:30:35;;;;;;;7.20;2.83;;;;;;;;;;5001924;28;20191;-84
2021/07/29 04:33:00;;;;;;;4.97;2.80;;;;;;;;;;5007355;28;20207;-84
2021/07/29 04:35:25;;;;;;;5.18;2.85;;;;;;;;;;5004680;28;20797;-82
2021/07/29 04:37:50;;;;;;;8.63;2.80;;;;;;;;;;5004905;28;20184;-84
2021/07/29 04:40:15;;;;;;;5.00;2.70;;;;;;;;;;5005350;28;20190;-84
2021/07/29 04:42:41;;;;;;;6.10;2.70;;;;;;;;;;5006561;28;20806;-83
2021/07/29 04:45:06;;;;;;;6.10;2.80;;;;;;;;;;5001552;28;20192;-84
2021/07/29 04:47:31;;;;;;;5.22;2.80;;;;;;;;;;5007815;28;20188;-84
2021/07/29 04:49:56;;;;;;;5.57;2.80;;;;;;;;;;5005766;28;20274;-79
2021/07/29 04:52:22;;;;;;;5.63;2.70;;;;;;;;;;5006659;28;20175;-84
2021/07/29 04:54:47;;;;;;;4.57;2.60;;;;;;;;;;5008876;28;20192;-84
2021/07/29 04:57:12;;;;;;;2.92;2.50;;;;;;;;;;5026119;28;20191;-83
2021/07/29 04:59:40;;;;;;;3.25;2.30;;;;;;;;;;5010259;28;20200;-82
2021/07/29 05:02:06;;;;;;;3.45;3.00;;;;;;;;;;5009502;28;20203;-82
2021/07/29 05:04:31;;;;;;;7.23;2.87;;;;;;;;;;5010427;28;20200;-86
2021/07/29 05:06:56;;;;;;;5.10;3.08;;;;;;;;;;5018757;28;20395;-82
2021/07/29 05:09:21;;;;;;;5.07;2.72;;;;;;;;;;5016117;28;20176;-83
2021/07/29 05:11:46;;;;;;;5.83;2.87;;;;;;;;;;5009120;28;20195;-84
2021/07/29 05:14:12;;;;;;;5.55;2.67;;;;;;;;;;5006524;28;20210;-81
2021/07/29 05:16:37;;;;;;;4.97;3.10;;;;;;;;;;5009345;28;20563;-81
2021/07/29 05:19:02;;;;;;;6.95;3.30;;;;;;;;;;5010098;28;20187;-80
2021/07/29 05:21:29;;;;;;;3.97;2.97;;;;;;;;;;5009698;28;20207;-81
2021/07/29 05:23:54;;;;;;;6.45;2.92;;;;;;;;;;5007866;28;20215;-84
2021/07/29 05:26:19;;;;;;;3.63;2.40;;;;;;;;;;5009333;28;20171;-83
2021/07/29 05:28:45;;;;;;;4.03;3.00;;;;;;;;;;5012080;28;20242;-83
2021/07/29 05:31:10;;;;;;;4.72;2.80;;;;;;;;;;5008699;28;20191;-81
2021/07/29 05:33:36;;;;;;;3.22;2.65;;;;;;;;;;5006213;28;20753;-83
2021/07/29 05:36:01;;;;;;;3.97;2.80;;;;;;;;;;5008587;28;20187;-82
2021/07/29 05:38:27;;;;;;;3.73;2.87;;;;;;;;;;5009313;28;20590;-83
2021/07/29 05:40:57;;;;;;;4.67;2.80;;;;;;;;;;5009693;28;20560;-86
2021/07/29 05:43:22;;;;;;;3.63;2.60;;;;;;;;;;5006149;28;20679;-86
2021/07/29 05:45:47;;;;;;;2.97;2.73;;;;;;;;;;5007146;28;20187;-86
2021/07/29 05:48:12;;;;;;;2.90;2.57;;;;;;;;;;5007692;28;20187;-82
2021/07/29 05:50:38;;;;;;;3.93;2.63;;;;;;;;;;5001436;28;20199;-84
2021/07/29 05:53:03;;;;;;;3.57;2.27;;;;;;;;;;5008125;28;20195;-83
2021/07/29 05:55:28;;;;;;;3.20;1.97;;;;;;;;;;5007523;28;20711;-76
2021/07/29 05:57:53;;;;;;;5.13;2.08;;;;;;;;;;5006815;28;20191;-77
2021/07/29 06:00:18;;;;;;;2.17;1.80;;;;;;;;;;5007254;28;20258;-78
2021/07/29 06:02:43;;;;;;;2.20;1.77;;;;;;;;;;5002748;28;20346;-78
2021/07/29 06:05:09;;;;;;;1.55;1.35;;;;;;;;;;5006204;28;20182;-80
2021/07/29 06:07:34;;;;;;;0.90;0.90;;;;;;;;;;5006813;28;20180;-79
2021/07/29 06:09:59;;;;;;;2.03;1.60;;;;;;;;;;5006133;28;20839;-80
2021/07/29 06:12:25;;;;;;;3.87;2.27;;;;;;;;;;5026261;28;20194;-77
2021/07/29 06:14:53;;;;;;;1.50;1.40;;;;;;;;;;5006697;28;20188;-78
2021/07/29 06:17:23;;;;;;;3.00;1.90;;;;;;;;;;5008888;28;20218;-79
2021/07/29 06:19:48;;;;;;;2.33;1.93;;;;;;;;;;5007746;28;20195;-79
2021/07/29 06:22:14;;;;;;;2.58;1.70;;;;;;;;;;5009725;28;20825;-78
2021/07/29 06:24:40;;;;;;;9.23;2.28;;;;;;;;;;5008062;28;20211;-79
2021/07/29 06:27:05;;;;;;;3.60;1.63;;;;;;;;;;5008581;28;20176;-76
2021/07/29 06:29:30;;;;;;;2.90;1.43;;;;;;;;;;5009561;28;20384;-78
2021/07/29 06:31:55;;;;;;;2.55;1.50;;;;;;;;;;5009327;28;20184;-78
2021/07/29 06:34:20;;;;;;;3.28;1.70;;;;;;;;;;5005913;28;20203;-77
2021/07/29 06:36:46;;;;;;;3.97;1.40;;;;;;;;;;5008045;28;20189;-80
2021/07/29 06:39:11;;;;;;;3.47;1.63;;;;;;;;;;5008680;28;20565;-80
2021/07/29 06:41:37;;;;;;;2.28;1.35;;;;;;;;;;5007588;28;20261;-80
2021/07/29 06:44:05;;;;;;;3.72;2.13;;;;;;;;;;5007465;28;20203;-80
2021/07/29 06:46:30;;;;;;;1.60;1.15;;;;;;;;;;5008602;28;20202;-80
2021/07/29 06:48:55;;;;;;;3.63;1.90;;;;;;;;;;5005399;28;20191;-77
2021/07/29 06:51:21;;;;;;;1.77;1.33;;;;;;;;;;5002804;28;20222;-80
2021/07/29 06:53:46;;;;;;;1.60;1.50;;;;;;;;;;5007053;28;20258;-80
2021/07/29 06:56:11;;;;;;;3.20;1.57;;;;;;;;;;5014888;28;20267;-81
2021/07/29 06:58:37;;;;;;;2.30;1.25;;;;;;;;;;5036996;28;20450;-83
2021/07/29 07:01:03;;;;;;;1.58;1.40;;;;;;;;;;5009852;28;20294;-85
2021/07/29 07:03:28;;;;;;;5.57;1.73;;;;;;;;;;5008329;28;20214;-82
2021/07/29 07:05:58;;;;;;;2.85;1.70;;;;;;;;;;5011027;28;20183;-84
2021/07/29 07:08:23;;;;;;;2.97;1.25;;;;;;;;;;5005604;28;20184;-84
2021/07/29 07:10:49;;;;;;;2.00;1.30;;;;;;;;;;5008865;28;20191;-84
2021/07/29 07:13:14;;;;;;;2.63;1.50;;;;;;;;;;5009582;28;20703;-85
2021/07/29 07:15:41;;;;;;;2.17;1.40;;;;;;;;;;5007796;28;20212;-82
2021/07/29 07:18:06;;;;;;;4.63;1.80;;;;;;;;;;5007758;28;20834;-82
2021/07/29 07:20:31;;;;;;;4.97;1.50;;;;;;;;;;5006256;28;20298;-84
2021/07/29 07:22:57;;;;;;;7.17;1.67;;;;;;;;;;5009286;28;20222;-91
2021/07/29 07:25:22;;;;;;;2.33;1.70;;;;;;;;;;5033512;23;20500;-55
2021/07/29 07:27:47;;;;;;;6.15;1.85;;;;;;;;;;5010395;28;20179;-53
2021/07/29 07:30:12;;;;;;;2.92;1.38;;;;;;;;;;5018510;28;20218;-53
2021/07/29 07:32:38;;;;;;;2.67;1.63;;;;;;;;;;5015482;28;20176;-54
2021/07/29 07:35:04;;;;;;;3.13;1.55;;;;;;;;;;5016210;28;20257;-53
2021/07/29 07:37:29;;;;;;;4.18;1.83;;;;;;;;;;5026201;28;20183;-53
2021/07/29 07:39:54;;;;;;;4.47;1.60;;;;;;;;;;5027489;28;20761;-55
2021/07/29 07:42:19;;;;;;;7.47;1.45;;;;;;;;;;5033496;28;20209;-53
2021/07/29 07:44:45;;;;;;;2.05;1.38;;;;;;;;;;5015317;28;20245;-54
2021/07/29 07:47:10;;;;;;;1.80;1.50;;;;;;;;;;5020881;28;20232;-53
2021/07/29 07:49:35;;;;;;;2.57;1.40;;;;;;;;;;5016691;28;20210;-56
2021/07/29 07:52:00;;;;;;;2.13;1.17;;;;;;;;;;5023592;28;20453;-55
2021/07/29 07:54:26;;;;;;;1.73;1.23;;;;;;;;;;5014806;28;20566;-55
2021/07/29 07:56:51;;;;;;;1.90;1.40;;;;;;;;;;5016217;28;20228;-55
2021/07/29 07:59:16;;;;;;;1.73;1.30;;;;;;;;;;5017088;28;20204;-55
2021/07/29 08:01:42;;;;;;;2.33;1.53;;;;;;;;;;5016821;28;20464;-55
2021/07/29 08:04:07;;;;;;;3.20;1.50;;;;;;;;;;5018260;28;20799;-55
2021/07/29 08:06:33;;;;;;;3.42;1.60;;;;;;;;;;5007679;28;20182;-54
2021/07/29 08:08:59;;;;;;;2.57;1.53;;;;;;;;;;5018054;28;20645;-55
2021/07/29 08:11:24;;;;;;;3.05;1.67;;;;;;;;;;5021721;28;20190;-55
2021/07/29 08:13:50;;;;;;;1.55;1.42;;;;;;;;;;5017286;28;20467;-55
2021/07/29 08:16:15;;;;;;;4.37;1.80;;;;;;;;;;5016680;28;20238;-56
2021/07/29 08:18:40;;;;;;;2.47;1.70;;;;;;;;;;5022405;28;20211;-54
2021/07/29 08:21:09;;;;;;;2.17;1.60;;;;;;;;;;5018163;28;21140;-55
2021/07/29 08:23:34;;;;;;;1.83;1.50;;;;;;;;;;5012235;28;20441;-55
2021/07/29 08:25:59;;;;;;;1.85;1.70;;;;;;;;;;5013671;28;20183;-55
2021/07/29 08:28:24;;;;;;;2.40;1.60;;;;;;;;;;5019287;28;20179;-55
2021/07/29 08:30:50;;;;;;;2.57;1.80;;;;;;;;;;5001296;28;20436;-55
2021/07/29 08:33:16;;;;;;;5.30;1.83;;;;;;;;;;5018732;28;20188;-55
2021/07/29 08:35:41;;;;;;;4.37;1.73;;;;;;;;;;5014134;28;20194;-55
2021/07/29 08:38:06;;;;;;;3.77;2.13;;;;;;;;;;5016685;28;20509;-54
2021/07/29 08:40:32;;;;;;;3.53;1.70;;;;;;;;;;4980948;28;20456;-54
2021/07/29 08:42:58;;;;;;;2.70;2.13;;;;;;;;;;5019983;28;20202;-56
2021/07/29 08:45:23;;;;;;;2.35;1.70;;;;;;;;;;5021348;28;20174;-55
2021/07/29 08:47:52;;;;;;;2.85;1.55;;;;;;;;;;5019912;28;20217;-56
2021/07/29 08:50:17;;;;;;;2.80;1.60;;;;;;;;;;5017774;28;20203;-55
2021/07/29 08:52:42;;;;;;;2.03;1.30;;;;;;;;;;5018772;28;20176;-55
2021/07/29 08:55:08;;;;;;;3.00;1.90;;;;;;;;;;5019927;28;20425;-55
2021/07/29 08:57:34;;;;;;;3.90;1.55;;;;;;;;;;5018355;28;20442;-55
2021/07/29 09:00:00;;;;;;;3.15;1.60;;;;;;;;;;5005346;28;21138;-55
2021/07/29 09:02:27;;;;;;;3.85;1.55;;;;;;;;;;5020731;28;20716;-55
2021/07/29 09:05:09;;;;;;;3.13;1.90;;;;;;;;;;5015209;28;20253;-55
2021/07/29 09:07:34;;;;;;;2.45;1.77;;;;;;;;;;5013313;28;20261;-55
2021/07/29 09:09:59;;;;;;;2.63;1.70;;;;;;;;;;5017005;28;20752;-55
2021/07/29 09:12:25;;;;;;;2.60;1.73;;;;;;;;;;5017512;28;20189;-53
2021/07/29 09:14:56;;;;;;;3.97;1.88;;;;;;;;;;5014802;28;20191;-55
2021/07/29 09:17:22;;;;;;;3.72;1.90;;;;;;;;;;5015718;28;20224;-54
2021/07/29 09:19:51;;;;;;;3.55;1.83;;;;;;;;;;5020195;28;20206;-54
2021/07/29 09:22:23;;;;;;;2.95;1.60;;;;;;;;;;5017792;28;20297;-54
2021/07/29 09:25:01;;;;;;;2.22;1.63;;;;;;;;;;5014384;28;20244;-54
2021/07/29 09:27:39;;;;;;;2.40;2.08;;;;;;;;;;5014423;28;20194;-55
2021/07/29 09:30:10;;;;;;;2.33;1.70;;;;;;;;;;5008702;28;20190;-55
2021/07/29 09:32:49;;;;;;;2.92;1.52;;;;;;;;;;5020394;28;20183;-55
2021/07/29 09:35:25;;;;;;;2.08;1.50;;;;;;;;;;5017721;28;20195;-55
2021/07/29 09:37:51;;;;;;;1.60;1.50;;;;;;;;;;5000534;28;20193;-55
2021/07/29 09:40:17;;;;;;;2.47;1.60;;;;;;;;;;5006192;28;20202;-55
2021/07/29 09:42:42;;;;;;;2.87;1.50;;;;;;;;;;5029207;28;20263;-54
2021/07/29 09:45:07;;;;;;;5.53;1.60;;;;;;;;;;5022670;28;20521;-54
2021/07/29 09:47:35;;;;;;;2.58;1.58;;;;;;;;;;5023610;28;20937;-54
2021/07/29 09:50:01;;;;;;;2.47;1.50;;;;;;;;;;5025165;28;20273;-54
2021/07/29 09:52:27;;;;;;;2.58;1.73;;;;;;;;;;5016601;28;20282;-54
2021/07/29 09:54:52;;;;;;;4.93;1.60;;;;;;;;;;5021213;28;20190;-55
2021/07/29 09:57:18;;;;;;;5.88;1.80;;;;;;;;;;5017883;28;20238;-55
2021/07/29 09:59:43;;;;;;;3.95;1.58;;;;;;;;;;5024223;28;20229;-53
2021/07/29 10:02:09;;;;;;;1.75;1.50;;;;;;;;;;5022357;28;20222;-55
2021/07/29 10:04:46;;;;;;;36.20;2.97;;;;;;;;;;5014143;28;20676;-56
2021/07/29 10:07:23;;;;;;;5.95;1.95;;;;;;;;;;4995632;28;20632;-54
2021/07/29 10:09:49;;;;;;;3.47;1.52;;;;;;;;;;5015628;28;20273;-55
2021/07/29 10:12:19;;;;;;;3.78;1.73;;;;;;;;;;5013323;28;20678;-55
2021/07/29 10:14:45;;;;;;;2.97;1.30;;;;;;;;;;5011030;28;20194;-54
2021/07/29 10:17:10;;;;;;;4.32;1.45;;;;;;;;;;5020506;28;20654;-54
2021/07/29 10:19:35;;;;;;;6.07;1.50;;;;;;;;;;5012078;28;20246;-55
2021/07/29 10:22:21;;;;;;;21.13;2.15;;;;;;;;;;5011771;28;20469;-55
2021/07/29 10:24:50;;;;;;;5.05;1.42;;;;;;;;;;5011955;28;20223;-54
2021/07/29 10:27:15;;;;;;;3.90;1.55;;;;;;;;;;5016739;28;20185;-55
2021/07/29 10:29:41;;;;;;;3.20;1.70;;;;;;;;;;5015026;28;20215;-55
2021/07/29 10:32:09;;;;;;;3.08;1.60;;;;;;;;;;5022397;28;20290;-55
2021/07/29 10:34:35;;;;;;;9.65;1.35;;;;;;;;;;5022354;28;20195;-53
2021/07/29 10:37:00;;;;;;;1.83;1.33;;;;;;;;;;5020424;28;20252;-55
2021/07/29 10:39:26;;;;;;;20.65;2.10;;;;;;;;;;5018532;28;20234;-54
2021/07/29 10:41:53;;;;;;;2.70;1.38;;;;;;;;;;5018065;28;20624;-54
2021/07/29 10:44:36;;;;;;;4.72;1.48;;;;;;;;;;5015475;28;20299;-53
2021/07/29 10:47:02;;;;;;;3.38;1.35;;;;;;;;;;5022862;28;20560;-53
2021/07/29 10:49:46;;;;;;;2.08;1.48;;;;;;;;;;5015854;28;20214;-55
2021/07/29 10:52:11;;;;;;;1.50;1.05;;;;;;;;;;5016568;28;20182;-57
2021/07/29 10:54:37;;;;;;;8.02;1.75;;;;;;;;;;5012498;28;20194;-55
2021/07/29 10:57:03;;;;;;;5.68;1.80;;;;;;;;;;5016522;28;20179;-56
2021/07/29 10:59:28;;;;;;;7.40;1.70;;;;;;;;;;5014217;28;20239;-55
2021/07/29 11:01:54;;;;;;;2.58;1.35;;;;;;;;;;5015348;28;20293;-55
2021/07/29 11:04:19;;;;;;;5.32;1.40;;;;;;;;;;5012338;28;20187;-54
2021/07/29 11:06:55;;;;;;;3.28;1.50;;;;;;;;;;5004758;28;20633;-55
2021/07/29 11:09:21;;;;;;;2.38;1.40;;;;;;;;;;4999956;28;20191;-54
2021/07/29 11:11:48;;;;;;;3.10;1.40;;;;;;;;;;5014691;28;20217;-55
2021/07/29 11:14:14;;;;;;;6.55;1.70;;;;;;;;;;5014020;28;20201;-55
2021/07/29 11:16:40;;;;;;;4.28;1.27;;;;;;;;;;5017551;28;20187;-54
2021/07/29 11:19:05;;;;;;;2.03;1.40;;;;;;;;;;5021973;28;20272;-56
2021/07/29 11:21:31;;;;;;;1.95;1.58;;;;;;;;;;5017012;28;20213;-57
2021/07/29 11:23:57;;;;;;;2.63;1.40;;;;;;;;;;5006300;28;20188;-56
2021/07/29 11:26:22;;;;;;;3.47;1.58;;;;;;;;;;5011752;28;20194;-55
2021/07/29 11:29:06;;;;;;;2.40;1.50;;;;;;;;;;5000347;28;20230;-59
2021/07/29 11:31:33;;;;;;;2.22;1.40;;;;;;;;;;5015907;28;20191;-54
2021/07/29 11:33:59;;;;;;;3.17;1.60;;;;;;;;;;5015264;28;20286;-55
2021/07/29 11:36:24;;;;;;;2.22;1.30;;;;;;;;;;5016098;28;20186;-55
2021/07/29 11:39:00;;;;;;;1.52;1.40;;;;;;;;;;5014430;28;20229;-54
2021/07/29 11:41:26;;;;;;;2.65;1.40;;;;;;;;;;5017299;28;20238;-55
2021/07/29 11:43:54;;;;;;;3.38;1.25;;;;;;;;;;5014013;28;20206;-54
2021/07/29 11:46:20;;;;;;;1.83;1.35;;;;;;;;;;5021605;28;20715;-54
2021/07/29 11:48:45;;;;;;;1.85;1.30;;;;;;;;;;5032879;28;20198;-54
2021/07/29 11:51:14;;;;;;;2.58;1.38;;;;;;;;;;5018139;28;20180;-54
2021/07/29 11:53:40;;;;;;;6.13;1.60;;;;;;;;;;5023147;28;20220;-55
2021/07/29 11:56:07;;;;;;;1.50;1.30;;;;;;;;;;5004153;28;20675;-55
2021/07/29 11:58:33;;;;;;;2.15;1.50;;;;;;;;;;5021472;28;20272;-55
2021/07/29 12:00:58;;;;;;;2.35;1.65;;;;;;;;;;5004564;28;20669;-55
2021/07/29 12:03:23;;;;;;;2.80;1.40;;;;;;;;;;5021830;28;20182;-55
2021/07/29 12:05:48;;;;;;;2.20;1.50;;;;;;;;;;5021128;28;20261;-54
2021/07/29 12:08:14;;;;;;;5.70;1.40;;;;;;;;;;5000451;28;20198;-56
2021/07/29 12:10:40;;;;;;;3.42;1.40;;;;;;;;;;5014795;28;20203;-55
2021/07/29 12:13:07;;;;;;;3.55;1.25;;;;;;;;;;5018851;28;20658;-55
2021/07/29 12:15:32;;;;;;;4.35;1.40;;;;;;;;;;5008973;28;20182;-54
2021/07/29 12:18:24;;;;;;;2.75;1.30;;;;;;;;;;5011803;28;20179;-55
2021/07/29 12:20:50;;;;;;;6.57;1.60;;;;;;;;;;5015086;28;20215;-54
2021/07/29 12:23:16;;;;;;;3.03;1.20;;;;;;;;;;5019791;28;20186;-55
2021/07/29 12:25:41;;;;;;;2.42;1.58;;;;;;;;;;5018673;28;20309;-54
2021/07/29 12:28:06;;;;;;;5.40;1.52;;;;;;;;;;5027880;28;20659;-55
2021/07/29 12:30:39;;;;;;;3.15;1.40;;;;;;;;;;5019906;28;20203;-55
2021/07/29 12:33:05;;;;;;;6.53;1.88;;;;;;;;;;5022939;28;20732;-55
2021/07/29 12:35:31;;;;;;;4.45;1.27;;;;;;;;;;5002908;28;20183;-56
2021/07/29 12:37:59;;;;;;;3.22;1.58;;;;;;;;;;5021734;28;20175;-55
2021/07/29 12:40:25;;;;;;;4.97;1.52;;;;;;;;;;5018157;28;20203;-55
2021/07/29 12:42:50;;;;;;;1.73;1.40;;;;;;;;;;5012234;28;20179;-55
2021/07/29 12:45:15;;;;;;;3.97;1.50;;;;;;;;;;5020783;28;20186;-55
2021/07/29 12:47:42;;;;;;;3.85;1.33;;;;;;;;;;5026556;28;20183;-55
2021/07/29 12:50:07;;;;;;;4.25;1.50;;;;;;;;;;5025585;28;20678;-54
2021/07/29 12:52:32;;;;;;;2.38;1.20;;;;;;;;;;5010288;28;20257;-55
2021/07/29 12:54:58;;;;;;;4.00;1.40;;;;;;;;;;5019477;28;20214;-55
2021/07/29 12:57:24;;;;;;;2.00;1.40;;;;;;;;;;5017323;28;20488;-54
2021/07/29 12:59:49;;;;;;;4.05;1.23;;;;;;;;;;5017456;28;20309;-55
2021/07/29 13:02:14;;;;;;;3.67;1.50;;;;;;;;;;5011242;28;20201;-54
2021/07/29 13:04:39;;;;;;;3.03;1.27;;;;;;;;;;5013886;28;20422;-55
2021/07/29 13:07:04;;;;;;;3.47;1.53;;;;;;;;;;5012765;28;20454;-55
2021/07/29 13:09:30;;;;;;;12.90;1.97;;;;;;;;;;5021829;28;20973;-55
2021/07/29 13:11:55;;;;;;;3.70;1.77;;;;;;;;;;5013754;28;20414;-55
2021/07/29 13:14:20;;;;;;;4.97;1.50;;;;;;;;;;5028322;28;20431;-54
2021/07/29 13:16:45;;;;;;;3.72;1.45;;;;;;;;;;5022156;28;20187;-55
2021/07/29 13:19:10;;;;;;;3.67;1.50;;;;;;;;;;5005606;28;20199;-55
2021/07/29 13:21:36;;;;;;;3.17;1.30;;;;;;;;;;5003683;28;21058;-54
2021/07/29 13:24:01;;;;;;;4.07;1.38;;;;;;;;;;5020297;28;20218;-53
2021/07/29 13:26:27;;;;;;;4.97;1.67;;;;;;;;;;5025323;28;20179;-54
2021/07/29 13:28:52;;;;;;;15.95;2.75;;;;;;;;;;5024711;28;20187;-55
2021/07/29 13:31:17;;;;;;;11.82;2.08;;;;;;;;;;5021095;28;20289;-55
2021/07/29 13:33:42;;;;;;;6.93;2.10;;;;;;;;;;5015973;28;20213;-55
2021/07/29 13:36:07;;;;;;;7.97;1.42;;;;;;;;;;5022391;28;20565;-54
2021/07/29 13:38:33;;;;;;;3.37;1.10;;;;;;;;;;5021735;28;20189;-55
2021/07/29 13:40:58;;;;;;;2.92;1.25;;;;;;;;;;5017662;28;20537;-54
2021/07/29 13:43:23;;;;;;;3.78;1.30;;;;;;;;;;5024801;28;20182;-54
2021/07/29 13:45:48;;;;;;;5.70;1.95;;;;;;;;;;5021159;28;20258;-54
2021/07/29 13:48:14;;;;;;;5.45;1.40;;;;;;;;;;5023265;28;20269;-55
2021/07/29 13:50:41;;;;;;;3.58;1.30;;;;;;;;;;5014893;28;20276;-54
2021/07/29 13:53:06;;;;;;;17.67;1.85;;;;;;;;;;5028666;28;21069;-54
2021/07/29 13:55:31;;;;;;;25.02;2.78;;;;;;;;;;5006440;28;20182;-55
2021/07/29 13:57:57;;;;;;;12.57;2.00;;;;;;;;;;5028096;28;20183;-54
2021/07/29 14:00:22;;;;;;;12.38;1.60;;;;;;;;;;5025640;28;20241;-54
2021/07/29 14:02:47;;;;;;;16.50;2.45;;;;;;;;;;5040497;28;20285;-55
2021/07/29 14:05:13;;;;;;;6.63;1.63;;;;;;;;;;5017262;28;20326;-55
2021/07/29 14:07:40;;;;;;;5.40;1.30;;;;;;;;;;5021761;28;20537;-53
2021/07/29 14:10:06;;;;;;;11.02;1.60;;;;;;;;;;5017760;28;20210;-55
2021/07/29 14:12:33;;;;;;;3.35;1.27;;;;;;;;;;5020612;28;20187;-54
2021/07/29 14:14:59;;;;;;;13.57;2.47;;;;;;;;;;5002601;28;20646;-54
2021/07/29 14:20:09;;;;;;;7.38;1.77;;;;;;;;;;5025010;28;21001;-55
2021/07/29 14:25:19;;;;;;;9.48;1.60;;;;;;;;;;5021622;28;20200;-54
2021/07/29 14:27:44;;;;;;;4.13;1.50;;;;;;;;;;5017314;28;20257;-55
2021/07/29 14:30:10;;;;;;;8.48;1.63;;;;;;;;;;5016590;28;20195;-55
2021/07/29 14:32:35;;;;;;;13.05;1.80;;;;;;;;;;5017882;28;20635;-55
2021/07/29 14:35:00;;;;;;;8.38;1.63;;;;;;;;;;5003956;28;20190;-55
2021/07/29 14:37:26;;;;;;;6.00;1.58;;;;;;;;;;5009351;28;20178;-55
2021/07/29 14:39:51;;;;;;;6.32;1.63;;;;;;;;;;5018448;28;20202;-56
2021/07/29 14:42:16;;;;;;;4.15;1.40;;;;;;;;;;5016200;28;20272;-55